sensor_id;sensor_type;location;lat;lon;timestamp;P1;durP1;ratioP1;P2;durP2;ratioP2
41201;SDS011;26936;50.524;8.684;2023-04-25T00:02:03;16.23;;;9.97;;
41201;SDS011;26936;50.524;8.684;2023-04-25T00:04:28;17.50;;;9.77;;
41201;SDS011;26936;50.524;8.684;2023-04-25T00:06:54;13.02;;;8.98;;
41201;SDS011;26936;50.524;8.684;2023-04-25T00:09:20;14.05;;;9.38;;
41201;SDS011;26936;50.524;8.684;2023-04-25T00:11:46;17.23;;;9.60;;
41201;SDS011;26936;50.524;8.684;2023-04-25T00:14:11;16.43;;;9.33;;
41201;SDS011;26936;50.524;8.684;2023-04-25T00:16:37;16.67;;;9.20;;
41201;SDS011;26936;50.524;8.684;2023-04-25T00:19:02;15.67;;;8.57;;
41201;SDS011;26936;50.524;8.684;2023-04-25T00:21:27;15.77;;;8.63;;
41201;SDS011;26936;50.524;8.684;2023-04-25T00:23:53;14.82;;;8.63;;
41201;SDS011;26936;50.524;8.684;2023-04-25T00:26:19;13.68;;;8.32;;
41201;SDS011;26936;50.524;8.684;2023-04-25T00:28:45;15.70;;;9.30;;
41201;SDS011;26936;50.524;8.684;2023-04-25T00:31:11;13.25;;;7.80;;
41201;SDS011;26936;50.524;8.684;2023-04-25T00:33:37;14.90;;;8.63;;
41201;SDS011;26936;50.524;8.684;2023-04-25T00:36:02;16.43;;;9.13;;
41201;SDS011;26936;50.524;8.684;2023-04-25T00:38:27;15.98;;;8.88;;
41201;SDS011;26936;50.524;8.684;2023-04-25T00:40:52;14.50;;;9.27;;
41201;SDS011;26936;50.524;8.684;2023-04-25T00:43:18;16.30;;;9.15;;
41201;SDS011;26936;50.524;8.684;2023-04-25T00:45:44;16.00;;;9.10;;
41201;SDS011;26936;50.524;8.684;2023-04-25T00:48:12;19.90;;;9.95;;
41201;SDS011;26936;50.524;8.684;2023-04-25T00:50:39;14.88;;;9.13;;
41201;SDS011;26936;50.524;8.684;2023-04-25T00:53:05;14.98;;;9.35;;
41201;SDS011;26936;50.524;8.684;2023-04-25T00:55:31;17.50;;;9.75;;
41201;SDS011;26936;50.524;8.684;2023-04-25T00:57:57;21.33;;;10.40;;
41201;SDS011;26936;50.524;8.684;2023-04-25T01:00:22;17.13;;;9.63;;
41201;SDS011;26936;50.524;8.684;2023-04-25T01:02:48;17.27;;;9.00;;
41201;SDS011;26936;50.524;8.684;2023-04-25T01:05:14;15.55;;;8.65;;
41201;SDS011;26936;50.524;8.684;2023-04-25T01:07:40;15.23;;;7.75;;
41201;SDS011;26936;50.524;8.684;2023-04-25T01:10:05;10.65;;;6.57;;
41201;SDS011;26936;50.524;8.684;2023-04-25T01:12:31;12.05;;;6.00;;
41201;SDS011;26936;50.524;8.684;2023-04-25T01:14:57;10.40;;;5.07;;
41201;SDS011;26936;50.524;8.684;2023-04-25T01:17:22;6.82;;;3.92;;
41201;SDS011;26936;50.524;8.684;2023-04-25T01:19:47;7.82;;;3.60;;
41201;SDS011;26936;50.524;8.684;2023-04-25T01:22:14;8.25;;;3.90;;
41201;SDS011;26936;50.524;8.684;2023-04-25T01:24:39;9.13;;;3.45;;
41201;SDS011;26936;50.524;8.684;2023-04-25T01:27:05;7.40;;;3.20;;
41201;SDS011;26936;50.524;8.684;2023-04-25T01:29:31;9.75;;;3.50;;
41201;SDS011;26936;50.524;8.684;2023-04-25T01:31:57;9.00;;;3.63;;
41201;SDS011;26936;50.524;8.684;2023-04-25T01:34:23;9.25;;;3.63;;
41201;SDS011;26936;50.524;8.684;2023-04-25T01:36:49;9.23;;;4.05;;
41201;SDS011;26936;50.524;8.684;2023-04-25T01:39:15;6.90;;;3.30;;
41201;SDS011;26936;50.524;8.684;2023-04-25T01:41:42;7.78;;;3.50;;
41201;SDS011;26936;50.524;8.684;2023-04-25T01:44:07;7.53;;;3.45;;
41201;SDS011;26936;50.524;8.684;2023-04-25T01:46:33;10.88;;;3.75;;
41201;SDS011;26936;50.524;8.684;2023-04-25T01:48:59;7.57;;;3.80;;
41201;SDS011;26936;50.524;8.684;2023-04-25T01:51:24;9.95;;;4.07;;
41201;SDS011;26936;50.524;8.684;2023-04-25T01:53:49;10.38;;;3.70;;
41201;SDS011;26936;50.524;8.684;2023-04-25T01:56:15;9.68;;;3.70;;
41201;SDS011;26936;50.524;8.684;2023-04-25T01:58:42;8.50;;;3.47;;
41201;SDS011;26936;50.524;8.684;2023-04-25T02:01:08;7.55;;;3.47;;
41201;SDS011;26936;50.524;8.684;2023-04-25T02:03:33;9.60;;;3.53;;
41201;SDS011;26936;50.524;8.684;2023-04-25T02:05:59;11.85;;;4.05;;
41201;SDS011;26936;50.524;8.684;2023-04-25T02:08:24;7.25;;;2.83;;
41201;SDS011;26936;50.524;8.684;2023-04-25T02:10:51;6.55;;;3.28;;
41201;SDS011;26936;50.524;8.684;2023-04-25T02:13:16;6.65;;;3.28;;
41201;SDS011;26936;50.524;8.684;2023-04-25T02:15:42;12.20;;;3.80;;
41201;SDS011;26936;50.524;8.684;2023-04-25T02:18:07;13.33;;;3.57;;
41201;SDS011;26936;50.524;8.684;2023-04-25T02:20:32;7.03;;;3.07;;
41201;SDS011;26936;50.524;8.684;2023-04-25T02:22:58;11.27;;;3.45;;
41201;SDS011;26936;50.524;8.684;2023-04-25T02:25:23;10.32;;;3.50;;
41201;SDS011;26936;50.524;8.684;2023-04-25T02:27:49;9.52;;;3.47;;
41201;SDS011;26936;50.524;8.684;2023-04-25T02:30:16;7.82;;;3.78;;
41201;SDS011;26936;50.524;8.684;2023-04-25T02:32:41;8.30;;;3.35;;
41201;SDS011;26936;50.524;8.684;2023-04-25T02:35:07;8.23;;;3.60;;
41201;SDS011;26936;50.524;8.684;2023-04-25T02:37:33;15.80;;;3.92;;
41201;SDS011;26936;50.524;8.684;2023-04-25T02:39:59;10.25;;;3.58;;
41201;SDS011;26936;50.524;8.684;2023-04-25T02:42:25;9.27;;;4.18;;
41201;SDS011;26936;50.524;8.684;2023-04-25T02:44:51;9.18;;;3.97;;
41201;SDS011;26936;50.524;8.684;2023-04-25T02:47:16;9.47;;;4.83;;
41201;SDS011;26936;50.524;8.684;2023-04-25T02:49:41;10.37;;;4.07;;
41201;SDS011;26936;50.524;8.684;2023-04-25T02:52:06;13.50;;;4.70;;
41201;SDS011;26936;50.524;8.684;2023-04-25T02:54:32;9.33;;;4.17;;
41201;SDS011;26936;50.524;8.684;2023-04-25T02:56:57;10.70;;;4.50;;
41201;SDS011;26936;50.524;8.684;2023-04-25T02:59:22;14.23;;;4.33;;
41201;SDS011;26936;50.524;8.684;2023-04-25T03:01:47;13.48;;;4.38;;
41201;SDS011;26936;50.524;8.684;2023-04-25T03:04:13;10.63;;;4.27;;
41201;SDS011;26936;50.524;8.684;2023-04-25T03:06:38;9.30;;;4.30;;
41201;SDS011;26936;50.524;8.684;2023-04-25T03:09:03;6.67;;;3.90;;
41201;SDS011;26936;50.524;8.684;2023-04-25T03:11:28;13.05;;;4.18;;
41201;SDS011;26936;50.524;8.684;2023-04-25T03:13:54;10.88;;;4.70;;
41201;SDS011;26936;50.524;8.684;2023-04-25T03:16:19;8.05;;;4.70;;
41201;SDS011;26936;50.524;8.684;2023-04-25T03:18:45;10.70;;;4.43;;
41201;SDS011;26936;50.524;8.684;2023-04-25T03:21:10;14.83;;;4.20;;
41201;SDS011;26936;50.524;8.684;2023-04-25T03:23:35;11.38;;;4.10;;
41201;SDS011;26936;50.524;8.684;2023-04-25T03:26:00;10.90;;;4.30;;
41201;SDS011;26936;50.524;8.684;2023-04-25T03:28:26;12.30;;;4.13;;
41201;SDS011;26936;50.524;8.684;2023-04-25T03:30:51;14.30;;;4.85;;
41201;SDS011;26936;50.524;8.684;2023-04-25T03:33:16;13.20;;;4.85;;
41201;SDS011;26936;50.524;8.684;2023-04-25T03:35:41;12.03;;;4.30;;
41201;SDS011;26936;50.524;8.684;2023-04-25T03:38:07;10.90;;;4.45;;
41201;SDS011;26936;50.524;8.684;2023-04-25T03:40:33;13.30;;;4.90;;
41201;SDS011;26936;50.524;8.684;2023-04-25T03:42:58;10.48;;;4.68;;
41201;SDS011;26936;50.524;8.684;2023-04-25T03:45:23;10.10;;;4.77;;
41201;SDS011;26936;50.524;8.684;2023-04-25T03:47:48;14.25;;;5.35;;
41201;SDS011;26936;50.524;8.684;2023-04-25T03:50:14;14.52;;;5.95;;
41201;SDS011;26936;50.524;8.684;2023-04-25T03:52:39;9.93;;;5.17;;
41201;SDS011;26936;50.524;8.684;2023-04-25T03:55:05;12.73;;;5.17;;
41201;SDS011;26936;50.524;8.684;2023-04-25T03:57:30;14.75;;;5.47;;
41201;SDS011;26936;50.524;8.684;2023-04-25T03:59:55;15.57;;;5.97;;
41201;SDS011;26936;50.524;8.684;2023-04-25T04:02:21;14.38;;;5.43;;
41201;SDS011;26936;50.524;8.684;2023-04-25T04:04:47;11.55;;;5.05;;
41201;SDS011;26936;50.524;8.684;2023-04-25T04:07:12;10.02;;;4.18;;
41201;SDS011;26936;50.524;8.684;2023-04-25T04:09:37;10.98;;;3.92;;
41201;SDS011;26936;50.524;8.684;2023-04-25T04:12:03;10.90;;;4.10;;
41201;SDS011;26936;50.524;8.684;2023-04-25T04:14:28;8.07;;;4.05;;
41201;SDS011;26936;50.524;8.684;2023-04-25T04:16:53;11.03;;;4.20;;
41201;SDS011;26936;50.524;8.684;2023-04-25T04:19:18;8.00;;;4.23;;
41201;SDS011;26936;50.524;8.684;2023-04-25T04:21:44;10.68;;;4.47;;
41201;SDS011;26936;50.524;8.684;2023-04-25T04:24:10;9.55;;;3.50;;
41201;SDS011;26936;50.524;8.684;2023-04-25T04:26:35;10.07;;;3.85;;
41201;SDS011;26936;50.524;8.684;2023-04-25T04:29:01;7.55;;;3.85;;
41201;SDS011;26936;50.524;8.684;2023-04-25T04:31:27;10.25;;;3.72;;
41201;SDS011;26936;50.524;8.684;2023-04-25T04:33:53;9.13;;;4.03;;
41201;SDS011;26936;50.524;8.684;2023-04-25T04:36:19;7.15;;;3.63;;
41201;SDS011;26936;50.524;8.684;2023-04-25T04:38:48;10.82;;;3.88;;
41201;SDS011;26936;50.524;8.684;2023-04-25T04:41:13;6.32;;;3.38;;
41201;SDS011;26936;50.524;8.684;2023-04-25T04:43:39;7.95;;;3.80;;
41201;SDS011;26936;50.524;8.684;2023-04-25T04:46:04;8.23;;;3.22;;
41201;SDS011;26936;50.524;8.684;2023-04-25T04:48:31;8.13;;;3.13;;
41201;SDS011;26936;50.524;8.684;2023-04-25T04:51:00;9.27;;;3.33;;
41201;SDS011;26936;50.524;8.684;2023-04-25T04:53:25;7.85;;;3.97;;
41201;SDS011;26936;50.524;8.684;2023-04-25T04:55:50;13.10;;;4.68;;
41201;SDS011;26936;50.524;8.684;2023-04-25T04:58:16;8.45;;;4.10;;
41201;SDS011;26936;50.524;8.684;2023-04-25T05:00:41;7.88;;;3.85;;
41201;SDS011;26936;50.524;8.684;2023-04-25T05:03:06;12.67;;;3.93;;
41201;SDS011;26936;50.524;8.684;2023-04-25T05:05:32;9.63;;;4.25;;
41201;SDS011;26936;50.524;8.684;2023-04-25T05:07:57;6.40;;;3.83;;
41201;SDS011;26936;50.524;8.684;2023-04-25T05:10:22;7.95;;;3.70;;
41201;SDS011;26936;50.524;8.684;2023-04-25T05:12:47;6.43;;;3.30;;
41201;SDS011;26936;50.524;8.684;2023-04-25T05:15:13;8.83;;;3.77;;
41201;SDS011;26936;50.524;8.684;2023-04-25T05:17:38;7.25;;;3.42;;
41201;SDS011;26936;50.524;8.684;2023-04-25T05:20:04;11.20;;;3.92;;
41201;SDS011;26936;50.524;8.684;2023-04-25T05:22:30;9.75;;;3.53;;
41201;SDS011;26936;50.524;8.684;2023-04-25T05:24:56;5.57;;;3.00;;
41201;SDS011;26936;50.524;8.684;2023-04-25T05:27:21;9.57;;;3.33;;
41201;SDS011;26936;50.524;8.684;2023-04-25T05:29:46;6.87;;;3.20;;
41201;SDS011;26936;50.524;8.684;2023-04-25T05:32:12;6.75;;;2.75;;
41201;SDS011;26936;50.524;8.684;2023-04-25T05:34:37;10.93;;;2.90;;
41201;SDS011;26936;50.524;8.684;2023-04-25T05:37:02;7.67;;;2.60;;
41201;SDS011;26936;50.524;8.684;2023-04-25T05:39:28;4.57;;;1.95;;
41201;SDS011;26936;50.524;8.684;2023-04-25T05:41:53;7.45;;;3.33;;
41201;SDS011;26936;50.524;8.684;2023-04-25T05:44:19;7.40;;;2.85;;
41201;SDS011;26936;50.524;8.684;2023-04-25T05:46:44;5.93;;;2.20;;
41201;SDS011;26936;50.524;8.684;2023-04-25T05:49:09;5.40;;;2.25;;
41201;SDS011;26936;50.524;8.684;2023-04-25T05:51:34;6.00;;;2.50;;
41201;SDS011;26936;50.524;8.684;2023-04-25T05:54:00;3.67;;;2.50;;
41201;SDS011;26936;50.524;8.684;2023-04-25T05:56:25;6.27;;;2.47;;
41201;SDS011;26936;50.524;8.684;2023-04-25T05:58:50;6.00;;;2.20;;
41201;SDS011;26936;50.524;8.684;2023-04-25T06:01:16;6.95;;;2.17;;
41201;SDS011;26936;50.524;8.684;2023-04-25T06:03:41;7.15;;;2.95;;
41201;SDS011;26936;50.524;8.684;2023-04-25T06:06:07;6.55;;;2.20;;
41201;SDS011;26936;50.524;8.684;2023-04-25T06:08:33;6.50;;;2.10;;
41201;SDS011;26936;50.524;8.684;2023-04-25T06:10:59;6.03;;;3.20;;
41201;SDS011;26936;50.524;8.684;2023-04-25T06:13:24;9.50;;;3.88;;
41201;SDS011;26936;50.524;8.684;2023-04-25T06:15:49;5.37;;;3.00;;
41201;SDS011;26936;50.524;8.684;2023-04-25T06:18:15;5.30;;;2.77;;
41201;SDS011;26936;50.524;8.684;2023-04-25T06:20:40;8.67;;;2.70;;
41201;SDS011;26936;50.524;8.684;2023-04-25T06:23:05;6.80;;;2.70;;
41201;SDS011;26936;50.524;8.684;2023-04-25T06:25:30;6.95;;;2.78;;
41201;SDS011;26936;50.524;8.684;2023-04-25T06:27:56;7.43;;;2.85;;
41201;SDS011;26936;50.524;8.684;2023-04-25T06:30:21;4.83;;;2.80;;
41201;SDS011;26936;50.524;8.684;2023-04-25T06:32:50;7.75;;;3.40;;
41201;SDS011;26936;50.524;8.684;2023-04-25T06:35:15;4.75;;;2.83;;
41201;SDS011;26936;50.524;8.684;2023-04-25T06:37:41;5.82;;;2.85;;
41201;SDS011;26936;50.524;8.684;2023-04-25T06:40:06;7.80;;;3.40;;
41201;SDS011;26936;50.524;8.684;2023-04-25T06:42:32;10.27;;;3.90;;
41201;SDS011;26936;50.524;8.684;2023-04-25T06:44:57;5.97;;;3.40;;
41201;SDS011;26936;50.524;8.684;2023-04-25T06:47:22;6.97;;;3.70;;
41201;SDS011;26936;50.524;8.684;2023-04-25T06:49:48;7.30;;;4.00;;
41201;SDS011;26936;50.524;8.684;2023-04-25T06:52:13;8.45;;;3.78;;
41201;SDS011;26936;50.524;8.684;2023-04-25T06:54:38;6.00;;;3.50;;
41201;SDS011;26936;50.524;8.684;2023-04-25T06:57:03;7.73;;;3.53;;
41201;SDS011;26936;50.524;8.684;2023-04-25T06:59:29;7.00;;;3.67;;
41201;SDS011;26936;50.524;8.684;2023-04-25T07:01:54;7.07;;;4.00;;
41201;SDS011;26936;50.524;8.684;2023-04-25T07:04:19;9.48;;;4.50;;
41201;SDS011;26936;50.524;8.684;2023-04-25T07:06:45;7.50;;;3.83;;
41201;SDS011;26936;50.524;8.684;2023-04-25T07:09:12;7.90;;;4.47;;
41201;SDS011;26936;50.524;8.684;2023-04-25T07:11:37;11.93;;;5.38;;
41201;SDS011;26936;50.524;8.684;2023-04-25T07:14:03;9.00;;;4.40;;
41201;SDS011;26936;50.524;8.684;2023-04-25T07:16:28;6.32;;;3.90;;
41201;SDS011;26936;50.524;8.684;2023-04-25T07:18:54;10.68;;;4.53;;
41201;SDS011;26936;50.524;8.684;2023-04-25T07:21:19;9.40;;;3.72;;
41201;SDS011;26936;50.524;8.684;2023-04-25T07:23:44;8.98;;;4.57;;
41201;SDS011;26936;50.524;8.684;2023-04-25T07:26:10;7.25;;;4.15;;
41201;SDS011;26936;50.524;8.684;2023-04-25T07:28:35;8.15;;;4.13;;
41201;SDS011;26936;50.524;8.684;2023-04-25T07:31:00;10.87;;;4.50;;
41201;SDS011;26936;50.524;8.684;2023-04-25T07:33:26;8.07;;;3.53;;
41201;SDS011;26936;50.524;8.684;2023-04-25T07:35:52;6.43;;;3.40;;
41201;SDS011;26936;50.524;8.684;2023-04-25T07:38:17;8.70;;;3.10;;
41201;SDS011;26936;50.524;8.684;2023-04-25T07:40:43;5.30;;;3.33;;
41201;SDS011;26936;50.524;8.684;2023-04-25T07:43:08;6.83;;;3.43;;
41201;SDS011;26936;50.524;8.684;2023-04-25T07:45:33;7.60;;;3.38;;
41201;SDS011;26936;50.524;8.684;2023-04-25T07:47:59;5.68;;;3.08;;
41201;SDS011;26936;50.524;8.684;2023-04-25T07:50:24;6.60;;;3.00;;
41201;SDS011;26936;50.524;8.684;2023-04-25T07:52:49;7.63;;;3.55;;
41201;SDS011;26936;50.524;8.684;2023-04-25T07:55:14;7.20;;;3.30;;
41201;SDS011;26936;50.524;8.684;2023-04-25T07:57:40;5.30;;;2.70;;
41201;SDS011;26936;50.524;8.684;2023-04-25T08:00:06;6.70;;;3.03;;
41201;SDS011;26936;50.524;8.684;2023-04-25T08:02:34;6.05;;;3.25;;
41201;SDS011;26936;50.524;8.684;2023-04-25T08:05:00;6.40;;;3.03;;
41201;SDS011;26936;50.524;8.684;2023-04-25T08:07:25;6.73;;;3.07;;
41201;SDS011;26936;50.524;8.684;2023-04-25T08:09:50;8.70;;;3.43;;
41201;SDS011;26936;50.524;8.684;2023-04-25T08:12:15;3.78;;;3.00;;
41201;SDS011;26936;50.524;8.684;2023-04-25T08:14:41;6.28;;;2.70;;
41201;SDS011;26936;50.524;8.684;2023-04-25T08:17:06;5.90;;;2.90;;
41201;SDS011;26936;50.524;8.684;2023-04-25T08:19:31;6.03;;;2.95;;
41201;SDS011;26936;50.524;8.684;2023-04-25T08:21:57;4.68;;;2.80;;
41201;SDS011;26936;50.524;8.684;2023-04-25T08:24:22;6.38;;;3.38;;
41201;SDS011;26936;50.524;8.684;2023-04-25T08:26:48;7.75;;;3.10;;
41201;SDS011;26936;50.524;8.684;2023-04-25T08:29:13;4.97;;;3.13;;
41201;SDS011;26936;50.524;8.684;2023-04-25T08:31:39;8.50;;;3.70;;
41201;SDS011;26936;50.524;8.684;2023-04-25T08:34:04;8.63;;;3.30;;
41201;SDS011;26936;50.524;8.684;2023-04-25T08:36:29;4.75;;;3.00;;
41201;SDS011;26936;50.524;8.684;2023-04-25T08:38:56;7.20;;;3.35;;
41201;SDS011;26936;50.524;8.684;2023-04-25T08:41:21;6.55;;;3.65;;
41201;SDS011;26936;50.524;8.684;2023-04-25T08:43:47;12.77;;;5.43;;
41201;SDS011;26936;50.524;8.684;2023-04-25T08:46:13;8.18;;;3.10;;
41201;SDS011;26936;50.524;8.684;2023-04-25T08:48:45;11.60;;;3.58;;
41201;SDS011;26936;50.524;8.684;2023-04-25T08:51:15;6.10;;;3.00;;
41201;SDS011;26936;50.524;8.684;2023-04-25T08:53:45;6.65;;;2.85;;
41201;SDS011;26936;50.524;8.684;2023-04-25T08:56:14;6.45;;;2.55;;
41201;SDS011;26936;50.524;8.684;2023-04-25T08:58:42;5.65;;;2.67;;
41201;SDS011;26936;50.524;8.684;2023-04-25T09:01:08;7.85;;;2.95;;
41201;SDS011;26936;50.524;8.684;2023-04-25T09:03:34;4.53;;;2.30;;
41201;SDS011;26936;50.524;8.684;2023-04-25T09:06:00;7.53;;;2.53;;
41201;SDS011;26936;50.524;8.684;2023-04-25T09:08:26;5.45;;;2.17;;
41201;SDS011;26936;50.524;8.684;2023-04-25T09:10:51;4.93;;;1.93;;
41201;SDS011;26936;50.524;8.684;2023-04-25T09:13:23;5.85;;;3.55;;
41201;SDS011;26936;50.524;8.684;2023-04-25T09:15:52;6.60;;;3.05;;
41201;SDS011;26936;50.524;8.684;2023-04-25T09:18:23;4.65;;;1.60;;
41201;SDS011;26936;50.524;8.684;2023-04-25T09:20:51;6.03;;;2.10;;
41201;SDS011;26936;50.524;8.684;2023-04-25T09:23:16;5.50;;;1.77;;
41201;SDS011;26936;50.524;8.684;2023-04-25T09:25:45;4.82;;;2.05;;
41201;SDS011;26936;50.524;8.684;2023-04-25T09:28:12;4.70;;;2.05;;
41201;SDS011;26936;50.524;8.684;2023-04-25T09:30:37;10.40;;;2.53;;
41201;SDS011;26936;50.524;8.684;2023-04-25T09:33:06;7.05;;;1.75;;
41201;SDS011;26936;50.524;8.684;2023-04-25T09:35:42;13.00;;;5.03;;
41201;SDS011;26936;50.524;8.684;2023-04-25T09:38:09;5.13;;;2.13;;
41201;SDS011;26936;50.524;8.684;2023-04-25T09:40:38;6.40;;;2.00;;
41201;SDS011;26936;50.524;8.684;2023-04-25T09:43:08;4.20;;;1.75;;
41201;SDS011;26936;50.524;8.684;2023-04-25T09:45:54;7.07;;;1.80;;
41201;SDS011;26936;50.524;8.684;2023-04-25T09:48:24;3.42;;;1.67;;
41201;SDS011;26936;50.524;8.684;2023-04-25T09:53:27;4.35;;;1.65;;
41201;SDS011;26936;50.524;8.684;2023-04-25T09:55:53;6.40;;;1.60;;
41201;SDS011;26936;50.524;8.684;2023-04-25T09:58:20;6.25;;;2.40;;
41201;SDS011;26936;50.524;8.684;2023-04-25T10:00:46;5.55;;;1.85;;
41201;SDS011;26936;50.524;8.684;2023-04-25T10:03:11;5.85;;;1.25;;
41201;SDS011;26936;50.524;8.684;2023-04-25T10:05:37;5.55;;;1.80;;
41201;SDS011;26936;50.524;8.684;2023-04-25T10:08:03;5.10;;;1.73;;
41201;SDS011;26936;50.524;8.684;2023-04-25T10:10:31;6.05;;;1.80;;
41201;SDS011;26936;50.524;8.684;2023-04-25T10:13:01;6.15;;;1.85;;
41201;SDS011;26936;50.524;8.684;2023-04-25T10:15:28;5.15;;;1.48;;
41201;SDS011;26936;50.524;8.684;2023-04-25T10:17:54;6.57;;;1.60;;
41201;SDS011;26936;50.524;8.684;2023-04-25T10:20:21;7.63;;;2.15;;
41201;SDS011;26936;50.524;8.684;2023-04-25T10:22:47;5.18;;;1.60;;
41201;SDS011;26936;50.524;8.684;2023-04-25T10:25:13;4.03;;;1.35;;
41201;SDS011;26936;50.524;8.684;2023-04-25T10:27:39;5.28;;;1.67;;
41201;SDS011;26936;50.524;8.684;2023-04-25T10:32:39;8.82;;;1.98;;
41201;SDS011;26936;50.524;8.684;2023-04-25T10:35:11;5.03;;;2.13;;
41201;SDS011;26936;50.524;8.684;2023-04-25T10:38:00;6.53;;;1.63;;
41201;SDS011;26936;50.524;8.684;2023-04-25T10:40:33;5.32;;;1.60;;
41201;SDS011;26936;50.524;8.684;2023-04-25T10:45:56;5.03;;;1.60;;
41201;SDS011;26936;50.524;8.684;2023-04-25T10:48:25;4.88;;;1.60;;
41201;SDS011;26936;50.524;8.684;2023-04-25T10:51:06;4.82;;;1.40;;
41201;SDS011;26936;50.524;8.684;2023-04-25T10:53:33;5.22;;;1.45;;
41201;SDS011;26936;50.524;8.684;2023-04-25T10:55:59;5.70;;;1.42;;
41201;SDS011;26936;50.524;8.684;2023-04-25T10:58:24;4.05;;;1.65;;
41201;SDS011;26936;50.524;8.684;2023-04-25T11:00:49;4.87;;;1.50;;
41201;SDS011;26936;50.524;8.684;2023-04-25T11:03:15;9.40;;;1.88;;
41201;SDS011;26936;50.524;8.684;2023-04-25T11:05:41;7.65;;;1.55;;
41201;SDS011;26936;50.524;8.684;2023-04-25T11:08:13;6.10;;;1.75;;
41201;SDS011;26936;50.524;8.684;2023-04-25T11:10:39;4.45;;;1.60;;
41201;SDS011;26936;50.524;8.684;2023-04-25T11:13:05;6.32;;;1.88;;
41201;SDS011;26936;50.524;8.684;2023-04-25T11:15:30;7.40;;;2.15;;
41201;SDS011;26936;50.524;8.684;2023-04-25T11:17:55;5.78;;;2.22;;
41201;SDS011;26936;50.524;8.684;2023-04-25T11:20:21;5.70;;;1.93;;
41201;SDS011;26936;50.524;8.684;2023-04-25T11:22:50;4.03;;;1.90;;
41201;SDS011;26936;50.524;8.684;2023-04-25T11:25:16;7.43;;;2.30;;
41201;SDS011;26936;50.524;8.684;2023-04-25T11:27:51;4.57;;;1.60;;
41201;SDS011;26936;50.524;8.684;2023-04-25T11:30:17;8.00;;;3.15;;
41201;SDS011;26936;50.524;8.684;2023-04-25T11:32:43;9.75;;;2.83;;
41201;SDS011;26936;50.524;8.684;2023-04-25T11:35:09;6.95;;;2.20;;
41201;SDS011;26936;50.524;8.684;2023-04-25T11:37:35;5.20;;;1.60;;
41201;SDS011;26936;50.524;8.684;2023-04-25T11:40:01;5.80;;;2.10;;
41201;SDS011;26936;50.524;8.684;2023-04-25T11:42:28;7.07;;;2.40;;
41201;SDS011;26936;50.524;8.684;2023-04-25T11:44:53;7.90;;;2.35;;
41201;SDS011;26936;50.524;8.684;2023-04-25T11:47:19;8.75;;;2.60;;
41201;SDS011;26936;50.524;8.684;2023-04-25T11:49:44;6.65;;;2.10;;
41201;SDS011;26936;50.524;8.684;2023-04-25T11:52:10;6.63;;;2.60;;
41201;SDS011;26936;50.524;8.684;2023-04-25T11:54:36;5.93;;;2.33;;
41201;SDS011;26936;50.524;8.684;2023-04-25T11:57:02;5.70;;;2.17;;
41201;SDS011;26936;50.524;8.684;2023-04-25T11:59:28;5.70;;;2.15;;
41201;SDS011;26936;50.524;8.684;2023-04-25T12:01:53;9.15;;;2.35;;
41201;SDS011;26936;50.524;8.684;2023-04-25T12:06:45;8.48;;;2.10;;
41201;SDS011;26936;50.524;8.684;2023-04-25T12:09:13;13.20;;;3.35;;
41201;SDS011;26936;50.524;8.684;2023-04-25T12:11:47;8.00;;;2.00;;
41201;SDS011;26936;50.524;8.684;2023-04-25T12:14:30;6.70;;;1.88;;
41201;SDS011;26936;50.524;8.684;2023-04-25T12:16:57;7.88;;;2.50;;
41201;SDS011;26936;50.524;8.684;2023-04-25T12:19:24;5.80;;;2.53;;
41201;SDS011;26936;50.524;8.684;2023-04-25T12:21:50;8.25;;;3.22;;
41201;SDS011;26936;50.524;8.684;2023-04-25T12:24:22;8.43;;;2.30;;
41201;SDS011;26936;50.524;8.684;2023-04-25T12:29:25;12.68;;;2.75;;
41201;SDS011;26936;50.524;8.684;2023-04-25T12:31:52;11.32;;;2.83;;
41201;SDS011;26936;50.524;8.684;2023-04-25T12:34:19;6.18;;;2.15;;
41201;SDS011;26936;50.524;8.684;2023-04-25T12:36:45;7.28;;;2.72;;
41201;SDS011;26936;50.524;8.684;2023-04-25T12:39:21;9.63;;;2.47;;
41201;SDS011;26936;50.524;8.684;2023-04-25T12:41:48;6.35;;;2.35;;
41201;SDS011;26936;50.524;8.684;2023-04-25T12:44:14;8.63;;;2.42;;
41201;SDS011;26936;50.524;8.684;2023-04-25T12:46:40;6.03;;;2.20;;
41201;SDS011;26936;50.524;8.684;2023-04-25T12:49:06;6.32;;;1.98;;
41201;SDS011;26936;50.524;8.684;2023-04-25T12:51:33;5.13;;;2.22;;
41201;SDS011;26936;50.524;8.684;2023-04-25T12:53:59;4.50;;;1.88;;
41201;SDS011;26936;50.524;8.684;2023-04-25T12:56:25;7.43;;;2.25;;
41201;SDS011;26936;50.524;8.684;2023-04-25T12:58:52;7.80;;;2.10;;
41201;SDS011;26936;50.524;8.684;2023-04-25T13:01:17;6.57;;;1.80;;
41201;SDS011;26936;50.524;8.684;2023-04-25T13:03:43;3.40;;;1.77;;
41201;SDS011;26936;50.524;8.684;2023-04-25T13:06:08;8.40;;;1.93;;
41201;SDS011;26936;50.524;8.684;2023-04-25T13:08:33;3.92;;;1.75;;
41201;SDS011;26936;50.524;8.684;2023-04-25T13:10:59;5.85;;;1.80;;
41201;SDS011;26936;50.524;8.684;2023-04-25T13:13:25;7.00;;;1.98;;
41201;SDS011;26936;50.524;8.684;2023-04-25T13:15:52;4.30;;;1.67;;
41201;SDS011;26936;50.524;8.684;2023-04-25T13:18:17;5.60;;;2.40;;
41201;SDS011;26936;50.524;8.684;2023-04-25T13:20:44;3.78;;;1.60;;
41201;SDS011;26936;50.524;8.684;2023-04-25T13:23:09;7.30;;;2.00;;
41201;SDS011;26936;50.524;8.684;2023-04-25T13:25:35;4.75;;;1.90;;
41201;SDS011;26936;50.524;8.684;2023-04-25T13:28:01;4.25;;;1.30;;
41201;SDS011;26936;50.524;8.684;2023-04-25T13:30:26;4.28;;;1.42;;
41201;SDS011;26936;50.524;8.684;2023-04-25T13:32:51;6.25;;;1.60;;
41201;SDS011;26936;50.524;8.684;2023-04-25T13:35:17;6.20;;;1.67;;
41201;SDS011;26936;50.524;8.684;2023-04-25T13:37:42;8.82;;;1.65;;
41201;SDS011;26936;50.524;8.684;2023-04-25T13:40:10;3.92;;;1.70;;
41201;SDS011;26936;50.524;8.684;2023-04-25T13:42:39;6.43;;;1.60;;
41201;SDS011;26936;50.524;8.684;2023-04-25T13:45:05;7.78;;;2.45;;
41201;SDS011;26936;50.524;8.684;2023-04-25T13:47:31;3.17;;;1.27;;
41201;SDS011;26936;50.524;8.684;2023-04-25T13:49:56;4.55;;;1.10;;
41201;SDS011;26936;50.524;8.684;2023-04-25T13:52:22;4.60;;;1.40;;
41201;SDS011;26936;50.524;8.684;2023-04-25T13:54:49;5.15;;;1.50;;
41201;SDS011;26936;50.524;8.684;2023-04-25T13:57:14;4.38;;;1.38;;
41201;SDS011;26936;50.524;8.684;2023-04-25T13:59:40;5.72;;;1.63;;
41201;SDS011;26936;50.524;8.684;2023-04-25T14:02:06;4.43;;;1.60;;
41201;SDS011;26936;50.524;8.684;2023-04-25T14:04:31;5.75;;;1.73;;
41201;SDS011;26936;50.524;8.684;2023-04-25T14:06:57;3.88;;;1.45;;
41201;SDS011;26936;50.524;8.684;2023-04-25T14:09:22;5.28;;;1.40;;
41201;SDS011;26936;50.524;8.684;2023-04-25T14:11:51;3.35;;;1.40;;
41201;SDS011;26936;50.524;8.684;2023-04-25T14:14:17;6.20;;;1.60;;
41201;SDS011;26936;50.524;8.684;2023-04-25T14:16:42;7.40;;;2.72;;
41201;SDS011;26936;50.524;8.684;2023-04-25T14:19:08;9.55;;;2.75;;
41201;SDS011;26936;50.524;8.684;2023-04-25T14:21:33;6.47;;;1.52;;
41201;SDS011;26936;50.524;8.684;2023-04-25T14:23:58;5.10;;;1.77;;
41201;SDS011;26936;50.524;8.684;2023-04-25T14:26:24;4.27;;;1.47;;
41201;SDS011;26936;50.524;8.684;2023-04-25T14:28:49;7.43;;;1.60;;
41201;SDS011;26936;50.524;8.684;2023-04-25T14:31:16;4.57;;;1.45;;
41201;SDS011;26936;50.524;8.684;2023-04-25T14:33:41;12.20;;;5.83;;
41201;SDS011;26936;50.524;8.684;2023-04-25T14:36:08;7.40;;;2.20;;
41201;SDS011;26936;50.524;8.684;2023-04-25T14:38:33;2.95;;;1.40;;
41201;SDS011;26936;50.524;8.684;2023-04-25T14:40:58;8.10;;;1.83;;
41201;SDS011;26936;50.524;8.684;2023-04-25T14:43:24;4.00;;;1.30;;
41201;SDS011;26936;50.524;8.684;2023-04-25T14:45:49;4.35;;;1.40;;
41201;SDS011;26936;50.524;8.684;2023-04-25T14:48:14;3.50;;;1.43;;
41201;SDS011;26936;50.524;8.684;2023-04-25T14:50:40;7.35;;;1.88;;